Time;durP1;ratioP1;P1;durP2;ratioP2;P2;SDS_P1;SDS_P2;PMS_P1;PMS_P2;Temp;Humidity;BMP_temperature;BMP_pressure;BME280_temperature;BME280_humidity;BME280_pressure;Samples;Min_cycle;Max_cycle;Signal;HPM_P1;HPM_P2
2022/12/02 00:02:24;;;;;;;19.83;15.90;;;3.40;99.90;;;;;;5061095;28;20126;-63
2022/12/02 00:04:58;;;;;;;28.23;16.50;;;3.40;99.90;;;;;;5057378;28;20764;-62
2022/12/02 00:07:25;;;;;;;22.15;17.35;;;3.40;99.90;;;;;;5061633;28;20056;-63
2022/12/02 00:09:52;;;;;;;25.25;16.52;;;3.40;99.90;;;;;;5059672;28;20071;-63
2022/12/02 00:12:25;;;;;;;22.25;16.45;;;3.40;99.90;;;;;;5059074;28;20135;-64
2022/12/02 00:15:02;;;;;;;21.38;16.33;;;3.40;99.90;;;;;;5056354;28;20185;-66
2022/12/02 00:17:29;;;;;;;20.80;15.73;;;3.40;99.90;;;;;;5054675;28;20045;-65
2022/12/02 00:19:57;;;;;;;20.27;15.40;;;3.40;99.90;;;;;;5060163;28;20102;-63
2022/12/02 00:22:24;;;;;;;19.55;15.07;;;3.40;99.90;;;;;;5055997;28;20071;-64
2022/12/02 00:24:51;;;;;;;23.55;17.48;;;3.40;99.90;;;;;;5056206;28;20465;-62
2022/12/02 00:27:19;;;;;;;23.30;15.98;;;3.40;99.90;;;;;;5058769;28;20052;-63
2022/12/02 00:29:46;;;;;;;19.30;15.18;;;3.40;99.90;;;;;;5059484;28;20127;-65
2022/12/02 00:32:12;;;;;;;20.98;15.07;;;3.40;99.90;;;;;;5057323;28;20159;-68
2022/12/02 00:34:39;;;;;;;23.45;15.13;;;3.40;99.90;;;;;;5051152;28;20072;-63
2022/12/02 00:37:06;;;;;;;20.63;15.45;;;3.40;99.90;;;;;;5061208;28;20044;-64
2022/12/02 00:39:33;;;;;;;19.50;13.60;;;3.40;99.90;;;;;;5061113;28;20072;-62
2022/12/02 00:42:00;;;;;;;21.88;15.18;;;3.40;99.90;;;;;;5059075;28;20533;-63
2022/12/02 00:47:12;;;;;;;20.98;14.63;;;3.40;99.90;;;;;;5054251;28;20544;-63
2022/12/02 00:49:39;;;;;;;23.08;15.15;;;3.40;99.90;;;;;;5063983;28;20049;-65
2022/12/02 00:52:06;;;;;;;16.05;12.77;;;3.40;99.90;;;;;;5058593;28;20486;-63
2022/12/02 00:54:33;;;;;;;23.30;15.20;;;3.30;99.90;;;;;;5058811;28;20144;-62
2022/12/02 00:57:00;;;;;;;22.05;16.67;;;3.30;99.90;;;;;;5061299;28;20839;-65
2022/12/02 00:59:27;;;;;;;21.67;16.05;;;3.30;99.90;;;;;;5066168;28;20080;-64
2022/12/02 01:01:53;;;;;;;22.55;15.90;;;3.30;99.90;;;;;;5065541;28;20139;-62
2022/12/02 01:04:20;;;;;;;22.88;16.63;;;3.30;99.90;;;;;;5065921;28;20055;-63
2022/12/02 01:06:47;;;;;;;23.90;18.27;;;3.30;99.90;;;;;;5060887;28;20144;-63
2022/12/02 01:09:15;;;;;;;20.95;15.30;;;3.30;99.90;;;;;;5065780;28;20044;-62
2022/12/02 01:11:42;;;;;;;18.40;13.52;;;3.30;99.90;;;;;;5061080;28;20064;-64
2022/12/02 01:14:09;;;;;;;20.75;14.15;;;3.30;99.90;;;;;;5061156;28;20382;-63
2022/12/02 01:16:36;;;;;;;16.02;12.63;;;3.30;99.90;;;;;;5059137;28;20067;-62
2022/12/02 01:19:03;;;;;;;16.42;13.43;;;3.30;99.90;;;;;;5061967;28;20425;-64
2022/12/02 01:21:30;;;;;;;17.25;13.65;;;3.30;99.90;;;;;;5061289;28;20557;-63
2022/12/02 01:23:57;;;;;;;19.58;13.65;;;3.30;99.90;;;;;;5060193;28;20128;-63
2022/12/02 01:26:24;;;;;;;21.42;13.43;;;3.30;99.90;;;;;;5061393;28;20160;-62
2022/12/02 01:28:50;;;;;;;16.05;13.32;;;3.30;99.90;;;;;;5060942;28;20147;-66
2022/12/02 01:31:18;;;;;;;20.30;13.73;;;3.30;99.90;;;;;;5064443;28;20049;-64
2022/12/02 01:33:44;;;;;;;16.35;12.30;;;3.30;99.90;;;;;;5060187;28;20072;-64
2022/12/02 01:36:11;;;;;;;16.75;11.82;;;3.30;99.90;;;;;;5063934;28;20114;-65
2022/12/02 01:38:38;;;;;;;16.42;13.18;;;3.20;99.90;;;;;;5059004;28;20139;-63
2022/12/02 01:41:06;;;;;;;18.17;12.63;;;3.20;99.90;;;;;;5060015;28;20055;-63
2022/12/02 01:43:33;;;;;;;15.82;11.88;;;3.20;99.90;;;;;;5063451;28;20227;-63
2022/12/02 01:46:01;;;;;;;16.65;11.48;;;3.20;99.90;;;;;;5063803;28;20140;-62
2022/12/02 01:48:29;;;;;;;17.33;12.75;;;3.20;99.90;;;;;;5057726;28;20492;-63
2022/12/02 01:50:56;;;;;;;16.85;12.18;;;3.20;99.90;;;;;;5058791;28;20049;-62
2022/12/02 01:53:23;;;;;;;15.88;12.23;;;3.20;99.90;;;;;;5054839;28;20127;-63
2022/12/02 01:55:50;;;;;;;20.27;13.93;;;3.20;99.90;;;;;;5063081;28;20155;-63
2022/12/02 01:58:22;;;;;;;18.52;13.57;;;3.20;99.90;;;;;;5059487;28;20589;-63
2022/12/02 02:00:49;;;;;;;17.00;13.43;;;3.20;99.90;;;;;;5060628;28;20521;-63
2022/12/02 02:03:16;;;;;;;15.13;12.82;;;3.20;99.90;;;;;;5061411;28;20048;-64
2022/12/02 02:05:43;;;;;;;18.27;13.60;;;3.10;99.90;;;;;;5057221;28;20138;-62
2022/12/02 02:08:14;;;;;;;16.77;12.60;;;3.10;99.90;;;;;;5063165;28;20079;-62
2022/12/02 02:10:43;;;;;;;14.15;12.27;;;3.10;99.90;;;;;;5055497;28;20044;-63
2022/12/02 02:13:13;;;;;;;20.10;12.47;;;3.10;99.90;;;;;;5058212;28;20036;-63
2022/12/02 02:15:42;;;;;;;17.92;12.80;;;3.10;99.90;;;;;;5062180;28;20135;-63
2022/12/02 02:18:10;;;;;;;14.43;11.65;;;3.10;99.90;;;;;;5066860;28;20052;-63
2022/12/02 02:20:40;;;;;;;15.48;11.75;;;3.10;99.90;;;;;;5057587;28;20083;-64
2022/12/02 02:23:07;;;;;;;14.95;10.75;;;3.10;99.90;;;;;;5037871;28;20048;-65
2022/12/02 02:25:48;;;;;;;14.73;11.80;;;3.10;99.90;;;;;;5051943;28;20052;-62
2022/12/02 02:28:19;;;;;;;11.43;9.80;;;3.10;99.90;;;;;;5059376;28;20119;-63
2022/12/02 02:30:46;;;;;;;14.85;10.88;;;3.10;99.90;;;;;;5055091;28;20045;-64
2022/12/02 02:33:14;;;;;;;10.43;8.07;;;3.10;99.90;;;;;;5062970;28;20044;-63
2022/12/02 02:35:43;;;;;;;14.27;10.35;;;3.10;99.90;;;;;;5062365;28;20458;-67
2022/12/02 02:38:14;;;;;;;16.80;10.50;;;3.10;99.90;;;;;;5055469;28;20343;-63
2022/12/02 02:40:44;;;;;;;16.05;11.93;;;3.00;99.90;;;;;;5059737;28;20087;-63
2022/12/02 02:43:13;;;;;;;16.83;11.68;;;3.10;99.90;;;;;;5058964;28;20135;-65
2022/12/02 02:45:42;;;;;;;15.07;10.60;;;3.10;99.90;;;;;;5057305;28;20061;-63
2022/12/02 02:48:11;;;;;;;16.08;11.75;;;3.10;99.90;;;;;;5060146;28;20546;-62
2022/12/02 02:50:40;;;;;;;14.50;11.60;;;3.10;99.90;;;;;;5057618;28;20043;-65
2022/12/02 02:53:08;;;;;;;15.57;12.70;;;3.10;99.90;;;;;;5041823;28;20127;-62
2022/12/02 02:55:36;;;;;;;17.50;12.40;;;3.10;99.90;;;;;;5057767;28;20040;-63
2022/12/02 02:58:16;;;;;;;19.10;13.52;;;3.10;99.90;;;;;;5058729;28;20044;-62
2022/12/02 03:00:59;;;;;;;18.48;13.27;;;3.10;99.90;;;;;;5050054;28;20051;-62
2022/12/02 03:03:35;;;;;;;20.98;13.73;;;3.10;99.90;;;;;;5058574;28;20075;-63
2022/12/02 03:06:06;;;;;;;17.65;13.55;;;3.10;99.90;;;;;;5069364;28;20079;-62
2022/12/02 03:08:35;;;;;;;21.42;14.05;;;3.10;99.90;;;;;;5069885;28;20113;-62
2022/12/02 03:11:03;;;;;;;19.75;13.88;;;3.10;99.90;;;;;;5057929;28;20139;-63
2022/12/02 03:13:34;;;;;;;17.65;13.35;;;3.10;99.90;;;;;;5061495;28;20052;-66
2022/12/02 03:16:03;;;;;;;15.95;13.20;;;3.10;99.90;;;;;;5060663;28;20041;-63
2022/12/02 03:18:31;;;;;;;19.67;13.77;;;3.10;99.90;;;;;;5057914;28;20077;-63
2022/12/02 03:20:58;;;;;;;17.35;14.05;;;3.10;99.90;;;;;;5057764;28;20091;-66
2022/12/02 03:23:26;;;;;;;17.52;14.38;;;3.10;99.90;;;;;;5058866;28;20044;-62
2022/12/02 03:25:53;;;;;;;20.45;12.38;;;3.10;99.90;;;;;;5060626;28;20055;-63
2022/12/02 03:28:20;;;;;;;17.08;14.13;;;3.10;99.90;;;;;;5062050;28;20055;-63
2022/12/02 03:30:47;;;;;;;17.98;13.63;;;3.00;99.90;;;;;;5060745;28;20503;-62
2022/12/02 03:33:14;;;;;;;17.63;13.23;;;3.00;99.90;;;;;;5064012;28;20041;-62
2022/12/02 03:35:41;;;;;;;19.00;14.63;;;3.00;99.90;;;;;;5058124;28;20131;-64
2022/12/02 03:38:08;;;;;;;19.13;15.27;;;3.00;99.90;;;;;;5057901;28;20164;-62
2022/12/02 03:40:35;;;;;;;19.88;13.82;;;3.00;99.90;;;;;;5053442;28;20451;-63
2022/12/02 03:43:03;;;;;;;17.35;13.95;;;3.00;99.90;;;;;;5059544;28;20052;-64
2022/12/02 03:45:31;;;;;;;19.77;14.60;;;3.00;99.90;;;;;;5060521;28;20535;-63
2022/12/02 03:47:59;;;;;;;18.35;15.18;;;3.00;99.90;;;;;;5062443;28;20166;-63
2022/12/02 03:50:26;;;;;;;20.30;13.52;;;3.00;99.90;;;;;;5055513;28;20566;-63
2022/12/02 03:52:53;;;;;;;19.45;13.05;;;3.00;99.90;;;;;;5059065;28;20098;-62
2022/12/02 03:55:21;;;;;;;21.85;15.80;;;3.00;99.90;;;;;;5058566;28;20064;-65
2022/12/02 03:57:47;;;;;;;19.27;15.60;;;3.00;99.90;;;;;;5058689;28;20044;-65
2022/12/02 04:00:15;;;;;;;22.35;15.85;;;3.00;99.90;;;;;;5056441;28;20040;-62
2022/12/02 04:02:42;;;;;;;23.67;15.13;;;3.00;99.90;;;;;;5059454;28;20072;-63
2022/12/02 04:05:09;;;;;;;20.70;14.15;;;3.00;99.90;;;;;;5063461;28;20402;-64
2022/12/02 04:07:36;;;;;;;20.42;16.13;;;3.00;99.90;;;;;;5056590;28;20080;-62
2022/12/02 04:10:04;;;;;;;21.33;15.00;;;3.00;99.90;;;;;;5061715;28;20122;-63
2022/12/02 04:12:31;;;;;;;21.60;15.30;;;3.00;99.90;;;;;;5051052;28;20149;-65
2022/12/02 04:14:58;;;;;;;25.25;17.38;;;3.00;99.90;;;;;;5061816;28;20048;-61
2022/12/02 04:17:25;;;;;;;22.55;17.35;;;3.00;99.90;;;;;;5061416;28;20646;-63
2022/12/02 04:19:51;;;;;;;21.70;16.38;;;3.00;99.90;;;;;;5061166;28;20052;-64
2022/12/02 04:22:18;;;;;;;24.02;18.00;;;3.00;99.90;;;;;;5059394;28;20147;-63
2022/12/02 04:24:45;;;;;;;26.95;18.27;;;3.00;99.90;;;;;;5055788;28;20555;-62
2022/12/02 04:27:12;;;;;;;24.58;17.75;;;3.00;99.90;;;;;;5059785;28;20076;-63
2022/12/02 04:29:39;;;;;;;21.42;16.30;;;3.00;99.90;;;;;;5057658;28;20080;-62
2022/12/02 04:32:06;;;;;;;25.17;17.95;;;3.00;99.90;;;;;;5062854;28;20037;-63
2022/12/02 04:34:33;;;;;;;19.52;16.55;;;3.00;99.90;;;;;;5061369;28;20144;-63
2022/12/02 04:37:00;;;;;;;23.80;17.00;;;3.00;99.90;;;;;;5062526;28;20060;-62
2022/12/02 04:39:27;;;;;;;21.95;16.70;;;3.00;99.90;;;;;;5059983;28;20128;-63
2022/12/02 04:41:53;;;;;;;22.33;17.13;;;3.00;99.90;;;;;;5061394;28;20170;-62
2022/12/02 04:44:20;;;;;;;26.23;16.48;;;3.00;99.90;;;;;;5064000;28;20159;-64
2022/12/02 04:46:47;;;;;;;22.65;17.00;;;2.90;99.90;;;;;;5051056;28;20487;-62
2022/12/02 04:49:15;;;;;;;20.95;14.27;;;2.90;99.90;;;;;;5062879;28;20182;-63
2022/12/02 04:51:42;;;;;;;21.73;17.05;;;2.90;99.90;;;;;;5054477;28;20712;-63
2022/12/02 04:54:08;;;;;;;25.83;15.50;;;2.90;99.90;;;;;;5065168;28;20433;-64
2022/12/02 04:56:35;;;;;;;22.58;15.13;;;2.90;99.90;;;;;;5064742;28;20076;-63
2022/12/02 04:59:02;;;;;;;20.27;13.77;;;2.90;99.90;;;;;;5066428;28;20724;-63
2022/12/02 05:01:29;;;;;;;17.98;13.75;;;2.80;99.90;;;;;;5063529;28;20385;-62
2022/12/02 05:03:56;;;;;;;16.98;13.60;;;2.80;99.90;;;;;;5059983;28;20056;-63
2022/12/02 05:06:23;;;;;;;23.13;14.57;;;2.80;99.90;;;;;;5061971;28;20055;-62
2022/12/02 05:08:50;;;;;;;19.83;14.20;;;2.80;99.90;;;;;;5063207;28;20052;-63
2022/12/02 05:11:17;;;;;;;18.30;12.75;;;2.80;99.90;;;;;;5064257;28;20045;-62
2022/12/02 05:13:44;;;;;;;16.45;12.30;;;2.80;99.90;;;;;;5061933;28;20080;-66
2022/12/02 05:16:10;;;;;;;15.00;12.73;;;2.80;99.90;;;;;;5060170;28;20046;-63
2022/12/02 05:18:37;;;;;;;18.90;13.65;;;2.80;99.90;;;;;;5063419;28;20048;-63
2022/12/02 05:21:04;;;;;;;18.10;12.85;;;2.70;99.90;;;;;;5056241;28;20153;-63
2022/12/02 05:23:31;;;;;;;19.27;11.98;;;2.70;99.90;;;;;;5059739;28;20171;-64
2022/12/02 05:25:58;;;;;;;17.13;11.95;;;2.70;99.90;;;;;;5059383;28;20057;-65
2022/12/02 05:28:25;;;;;;;14.88;11.02;;;2.70;99.90;;;;;;5067337;28;20054;-62
2022/12/02 05:30:52;;;;;;;19.13;12.43;;;2.70;99.90;;;;;;5063830;28;20060;-63
2022/12/02 05:33:19;;;;;;;16.90;11.90;;;2.60;99.90;;;;;;5058419;28;20401;-62
2022/12/02 05:35:46;;;;;;;14.20;10.10;;;2.60;99.90;;;;;;5057397;28;20136;-63
2022/12/02 05:38:12;;;;;;;16.10;10.85;;;2.60;99.90;;;;;;5061056;28;20056;-63
2022/12/02 05:40:39;;;;;;;14.63;10.50;;;2.50;99.90;;;;;;5057046;28;20057;-66
2022/12/02 05:43:21;;;;;;;13.85;9.13;;;2.50;99.90;;;;;;5065629;28;20098;-63
2022/12/02 05:45:49;;;;;;;16.38;10.43;;;2.50;99.90;;;;;;5061794;28;20401;-63
2022/12/02 05:48:18;;;;;;;11.52;8.57;;;2.40;99.90;;;;;;5052871;28;20068;-66
2022/12/02 05:50:46;;;;;;;18.63;11.18;;;2.40;99.90;;;;;;5055089;28;20057;-63
2022/12/02 05:53:24;;;;;;;16.27;8.88;;;2.30;99.90;;;;;;5059275;28;20356;-63
2022/12/02 05:55:53;;;;;;;16.98;9.80;;;2.30;99.90;;;;;;5060676;28;20148;-62
2022/12/02 05:58:20;;;;;;;14.18;8.32;;;2.20;99.90;;;;;;5057512;28;20163;-64
2022/12/02 06:00:56;;;;;;;18.70;8.65;;;2.10;99.90;;;;;;5055966;28;20137;-64
2022/12/02 06:03:23;;;;;;;22.15;9.65;;;2.00;99.90;;;;;;5054792;28;20077;-64
2022/12/02 06:05:53;;;;;;;21.10;12.05;;;2.00;99.90;;;;;;5063730;28;20045;-63
2022/12/02 06:08:32;;;;;;;24.30;14.95;;;1.90;99.90;;;;;;5060757;28;20059;-64
2022/12/02 06:11:22;;;;;;;20.00;11.88;;;1.80;99.90;;;;;;5054751;28;20063;-63
2022/12/02 06:13:50;;;;;;;29.17;11.13;;;1.70;99.90;;;;;;5061244;28;20215;-65
2022/12/02 06:16:23;;;;;;;16.55;10.85;;;1.70;99.90;;;;;;5063538;28;20687;-64
2022/12/02 06:18:50;;;;;;;22.80;11.27;;;1.60;99.90;;;;;;5060019;28;20053;-63
2022/12/02 06:21:20;;;;;;;21.60;9.88;;;1.60;99.90;;;;;;5062285;28;20078;-64
2022/12/02 06:23:50;;;;;;;21.00;10.18;;;1.50;99.90;;;;;;5062780;28;20149;-63
2022/12/02 06:26:19;;;;;;;24.35;10.90;;;1.50;99.90;;;;;;5058742;28;20629;-63
2022/12/02 06:29:01;;;;;;;28.20;10.73;;;1.40;99.90;;;;;;5063708;28;20113;-64
2022/12/02 06:31:36;;;;;;;27.15;9.55;;;1.40;99.90;;;;;;5058073;28;20146;-63
2022/12/02 06:34:29;;;;;;;21.83;11.93;;;1.40;99.90;;;;;;5064336;28;20075;-64
2022/12/02 06:37:09;;;;;;;29.00;13.70;;;1.30;99.90;;;;;;5059540;28;20089;-64
2022/12/02 06:39:38;;;;;;;40.05;13.93;;;1.30;99.90;;;;;;5064640;28;20263;-64
2022/12/02 06:42:28;;;;;;;34.17;12.50;;;1.20;99.90;;;;;;5059590;28;20057;-63
2022/12/02 06:45:19;;;;;;;27.02;11.88;;;1.20;99.90;;;;;;5053237;28;20131;-63
2022/12/02 06:48:01;;;;;;;36.67;15.57;;;1.20;99.90;;;;;;5058599;28;20418;-64
2022/12/02 06:50:40;;;;;;;34.40;15.60;;;1.20;99.90;;;;;;5052370;28;20140;-64
2022/12/02 06:53:27;;;;;;;25.17;11.52;;;1.10;99.90;;;;;;5061634;28;20048;-63
2022/12/02 06:55:59;;;;;;;38.75;13.30;;;1.10;99.90;;;;;;5058958;28;20148;-63
2022/12/02 06:58:29;;;;;;;40.70;13.98;;;1.10;99.90;;;;;;5052468;28;20087;-63
2022/12/02 07:01:21;;;;;;;30.67;12.57;;;1.10;99.90;;;;;;5055377;28;20094;-63
2022/12/02 07:04:29;;;;;;;26.95;12.38;;;1.10;99.90;;;;;;5061584;28;20085;-64
2022/12/02 07:07:22;;;;;;;28.80;10.55;;;1.10;99.90;;;;;;5054708;28;20059;-64
2022/12/02 07:09:56;;;;;;;26.10;11.48;;;1.10;99.90;;;;;;5056689;28;20048;-64
2022/12/02 07:12:29;;;;;;;19.45;11.45;;;1.20;99.90;;;;;;5057254;28;20454;-63
2022/12/02 07:15:01;;;;;;;17.85;10.25;;;1.20;99.90;;;;;;5059719;28;20131;-67
2022/12/02 07:17:36;;;;;;;26.05;10.02;;;1.20;99.90;;;;;;5062132;28;20080;-64
2022/12/02 07:20:06;;;;;;;25.92;10.68;;;1.20;99.90;;;;;;5061494;28;20092;-63
2022/12/02 07:22:39;;;;;;;20.20;11.30;;;1.10;99.90;;;;;;5063661;28;20045;-63
2022/12/02 07:25:09;;;;;;;30.38;11.43;;;1.10;99.90;;;;;;5065189;28;20040;-63
2022/12/02 07:27:41;;;;;;;21.92;8.98;;;1.20;99.90;;;;;;5061036;28;20054;-63
2022/12/02 07:30:19;;;;;;;18.80;9.05;;;1.10;99.90;;;;;;5054461;28;20398;-65
2022/12/02 07:32:46;;;;;;;18.05;9.52;;;1.20;99.90;;;;;;5054395;28;20095;-63
2022/12/02 07:35:13;;;;;;;12.05;8.82;;;1.20;99.90;;;;;;5060919;28;20055;-62
2022/12/02 07:37:40;;;;;;;13.90;8.23;;;1.20;99.90;;;;;;5056430;28;20487;-65
2022/12/02 07:40:07;;;;;;;14.23;8.88;;;1.20;99.90;;;;;;5057616;28;20465;-62
2022/12/02 07:42:34;;;;;;;35.45;9.70;;;1.20;99.90;;;;;;5057709;28;20040;-63
2022/12/02 07:45:01;;;;;;;19.65;8.80;;;1.20;99.90;;;;;;5061041;28;20235;-63
2022/12/02 07:47:30;;;;;;;11.95;7.72;;;1.20;99.90;;;;;;5058438;28;20161;-62
2022/12/02 07:49:57;;;;;;;11.60;8.00;;;1.20;99.90;;;;;;5063478;28;20501;-64
2022/12/02 07:52:24;;;;;;;16.40;8.45;;;1.30;99.90;;;;;;5058197;28;20083;-63
2022/12/02 07:54:53;;;;;;;16.92;7.80;;;1.20;99.90;;;;;;5055544;28;20128;-64
2022/12/02 07:57:21;;;;;;;15.40;7.88;;;1.20;99.90;;;;;;5059884;28;20048;-66
2022/12/02 07:59:48;;;;;;;15.70;8.63;;;1.30;99.90;;;;;;5066593;28;20117;-63
2022/12/02 08:02:15;;;;;;;20.17;8.50;;;1.30;99.90;;;;;;5057419;28;20079;-63
2022/12/02 08:04:42;;;;;;;17.98;7.45;;;1.40;99.90;;;;;;5055348;28;20155;-65
2022/12/02 08:07:09;;;;;;;11.25;7.28;;;1.40;99.90;;;;;;5060061;28;20071;-63
2022/12/02 08:09:36;;;;;;;16.60;6.82;;;1.40;99.90;;;;;;5060677;28;20056;-62
2022/12/02 08:12:03;;;;;;;11.70;7.07;;;1.40;99.90;;;;;;5058348;28;20048;-62
2022/12/02 08:14:30;;;;;;;18.17;7.72;;;1.40;99.90;;;;;;5061446;27;20154;-63
2022/12/02 08:16:57;;;;;;;29.35;9.45;;;1.40;99.90;;;;;;5064376;28;20051;-63
2022/12/02 08:19:24;;;;;;;16.25;8.02;;;1.50;99.90;;;;;;5059135;28;20489;-63
2022/12/02 08:21:51;;;;;;;23.00;8.10;;;1.50;99.90;;;;;;5057139;28;20076;-65
2022/12/02 08:24:18;;;;;;;11.50;7.53;;;1.50;99.90;;;;;;5056429;28;20055;-63
2022/12/02 08:26:45;;;;;;;14.77;7.13;;;1.50;99.90;;;;;;5054558;28;23526;-63
2022/12/02 08:29:12;;;;;;;13.82;7.80;;;1.50;99.90;;;;;;5060936;28;20055;-63
2022/12/02 08:31:39;;;;;;;16.50;8.05;;;1.60;99.90;;;;;;5060012;28;20062;-62
2022/12/02 08:34:06;;;;;;;13.07;6.68;;;1.60;99.90;;;;;;5057071;28;20049;-63
2022/12/02 08:36:33;;;;;;;14.32;7.88;;;1.60;99.90;;;;;;5059165;28;20441;-63
2022/12/02 08:39:04;;;;;;;23.38;7.78;;;1.60;99.90;;;;;;5060937;28;20044;-63
2022/12/02 08:41:33;;;;;;;13.73;7.38;;;1.60;99.90;;;;;;5059891;28;20052;-64
2022/12/02 08:44:00;;;;;;;18.15;8.23;;;1.70;99.90;;;;;;5058123;28;20129;-64
2022/12/02 08:46:28;;;;;;;17.60;8.77;;;1.70;99.90;;;;;;5061909;28;20044;-62
2022/12/02 08:48:56;;;;;;;25.80;9.88;;;1.70;99.90;;;;;;5052680;28;20044;-63
2022/12/02 08:51:23;;;;;;;23.70;11.02;;;1.70;99.90;;;;;;5057978;28;20628;-62
2022/12/02 08:53:49;;;;;;;19.85;9.20;;;1.70;99.90;;;;;;5058457;28;20446;-64
2022/12/02 08:56:16;;;;;;;27.27;9.73;;;1.70;99.90;;;;;;5058872;28;20047;-64
2022/12/02 08:58:43;;;;;;;35.22;9.70;;;1.70;99.90;;;;;;5054574;28;20052;-64
2022/12/02 09:01:10;;;;;;;24.63;9.20;;;1.70;99.90;;;;;;5059096;28;20041;-63
2022/12/02 09:03:37;;;;;;;24.65;9.65;;;1.80;99.90;;;;;;5056063;28;20566;-63
2022/12/02 09:06:04;;;;;;;21.63;9.95;;;1.80;99.90;;;;;;5057132;28;20044;-64
2022/12/02 09:08:31;;;;;;;18.48;9.35;;;1.80;99.90;;;;;;5056422;28;21575;-67
2022/12/02 09:10:58;;;;;;;16.42;8.90;;;1.80;99.90;;;;;;5060186;28;20072;-63
2022/12/02 09:13:25;;;;;;;19.35;9.40;;;1.80;99.90;;;;;;5060129;28;20047;-64
2022/12/02 09:15:52;;;;;;;16.33;9.70;;;1.80;99.90;;;;;;5063848;28;20052;-62
2022/12/02 09:18:19;;;;;;;26.75;8.90;;;1.80;99.90;;;;;;5068080;28;20095;-64
2022/12/02 09:20:47;;;;;;;24.98;10.43;;;1.80;99.90;;;;;;5062130;28;20139;-64
2022/12/02 09:23:14;;;;;;;19.80;10.70;;;1.90;99.90;;;;;;5067745;28;20401;-62
2022/12/02 09:25:41;;;;;;;24.90;9.95;;;1.90;99.90;;;;;;5068201;28;20134;-66
2022/12/02 09:28:07;;;;;;;17.17;9.32;;;1.90;99.90;;;;;;5056880;28;20049;-63
2022/12/02 09:30:34;;;;;;;19.60;9.93;;;1.90;99.90;;;;;;5058928;28;20139;-63
2022/12/02 09:33:01;;;;;;;17.00;9.15;;;1.90;99.90;;;;;;5061279;28;20114;-64
2022/12/02 09:35:28;;;;;;;18.23;7.97;;;1.90;99.90;;;;;;5062276;28;20068;-62
2022/12/02 09:37:55;;;;;;;12.07;7.25;;;1.90;99.90;;;;;;5064527;28;20060;-64
2022/12/02 09:40:22;;;;;;;14.05;9.32;;;1.90;99.90;;;;;;5061040;28;20056;-63
2022/12/02 09:42:50;;;;;;;15.80;9.93;;;1.90;99.90;;;;;;5055541;28;20135;-63
2022/12/02 09:45:17;;;;;;;12.73;9.70;;;1.90;99.90;;;;;;5066032;28;20090;-62
2022/12/02 09:47:44;;;;;;;32.40;11.85;;;2.00;99.90;;;;;;5064017;28;20118;-63
2022/12/02 09:50:13;;;;;;;19.35;9.02;;;1.90;99.90;;;;;;5065841;28;20094;-66
2022/12/02 09:52:40;;;;;;;24.98;9.65;;;2.00;99.90;;;;;;5058289;28;20132;-63
2022/12/02 09:55:20;;;;;;;27.00;10.68;;;2.00;99.90;;;;;;5058677;28;20142;-63
2022/12/02 09:57:47;;;;;;;26.88;10.80;;;2.00;99.90;;;;;;5063818;28;20039;-63
2022/12/02 10:00:20;;;;;;;13.65;7.30;;;2.00;99.90;;;;;;5062474;28;20140;-63
2022/12/02 10:02:53;;;;;;;30.38;9.32;;;2.00;99.90;;;;;;5056068;28;20505;-63
2022/12/02 10:05:28;;;;;;;23.55;8.93;;;2.00;99.90;;;;;;5062942;28;20056;-63
2022/12/02 10:07:57;;;;;;;18.60;9.20;;;2.10;99.90;;;;;;5059259;28;20052;-63
2022/12/02 10:10:37;;;;;;;13.88;10.00;;;2.10;99.90;;;;;;5064162;28;20049;-62
2022/12/02 10:13:05;;;;;;;29.30;9.88;;;2.10;99.90;;;;;;5059887;28;20435;-63
2022/12/02 10:15:34;;;;;;;22.50;10.63;;;2.10;99.90;;;;;;5067645;28;20399;-64
2022/12/02 10:18:13;;;;;;;16.23;9.10;;;2.10;99.90;;;;;;5056897;28;20373;-64
2022/12/02 10:20:40;;;;;;;19.92;9.43;;;2.10;99.90;;;;;;5057341;28;20398;-63
2022/12/02 10:23:14;;;;;;;14.88;7.82;;;2.10;99.90;;;;;;5059166;28;20139;-64
2022/12/02 10:25:46;;;;;;;17.77;9.95;;;2.10;99.90;;;;;;5058731;28;20052;-64
2022/12/02 10:28:28;;;;;;;16.30;8.13;;;2.10;99.90;;;;;;5063210;28;20049;-62
2022/12/02 10:31:11;;;;;;;22.67;11.00;;;2.10;99.90;;;;;;5058803;28;20040;-65
2022/12/02 10:33:49;;;;;;;22.52;9.93;;;2.10;99.90;;;;;;5060880;28;20048;-62
2022/12/02 10:36:38;;;;;;;23.88;9.23;;;2.10;99.90;;;;;;5064552;28;20049;-65
2022/12/02 10:39:20;;;;;;;20.25;8.82;;;2.10;99.90;;;;;;5057576;28;20048;-62
2022/12/02 10:42:08;;;;;;;24.83;9.98;;;2.20;99.90;;;;;;5058983;28;20056;-63
2022/12/02 10:44:38;;;;;;;23.80;8.90;;;2.20;99.90;;;;;;5059423;28;20494;-64
2022/12/02 10:47:13;;;;;;;30.83;10.40;;;2.20;99.90;;;;;;5059533;28;20714;-62
2022/12/02 10:49:51;;;;;;;21.63;9.52;;;2.20;99.90;;;;;;5068910;28;20037;-63
2022/12/02 10:52:25;;;;;;;18.33;10.10;;;2.20;99.90;;;;;;5060083;28;20060;-63
2022/12/02 10:54:53;;;;;;;18.35;10.02;;;2.20;99.90;;;;;;5057918;28;20048;-63
2022/12/02 10:57:27;;;;;;;30.08;11.63;;;2.20;99.90;;;;;;5065003;28;20079;-64
2022/12/02 10:59:56;;;;;;;18.55;9.50;;;2.20;99.90;;;;;;5057049;28;20077;-62
2022/12/02 11:02:53;;;;;;;25.95;9.52;;;2.20;99.90;;;;;;5062806;28;20047;-63
2022/12/02 11:05:31;;;;;;;25.95;10.10;;;2.20;99.90;;;;;;5060055;28;20165;-64
2022/12/02 11:08:15;;;;;;;22.13;10.50;;;2.20;99.90;;;;;;5059840;28;20044;-63
2022/12/02 11:10:47;;;;;;;22.08;13.02;;;2.20;99.90;;;;;;5057525;28;20428;-62
2022/12/02 11:13:14;;;;;;;20.48;8.88;;;2.20;99.90;;;;;;5062321;28;20432;-66
2022/12/02 11:15:46;;;;;;;20.67;9.95;;;2.20;99.90;;;;;;5056901;28;20048;-64
2022/12/02 11:18:22;;;;;;;23.08;9.65;;;2.20;99.90;;;;;;5056851;28;20055;-63
2022/12/02 11:21:13;;;;;;;28.67;9.02;;;2.20;99.90;;;;;;5060075;28;20049;-63
2022/12/02 11:23:40;;;;;;;20.67;8.32;;;2.20;99.90;;;;;;5062407;28;20049;-62
2022/12/02 11:26:11;;;;;;;21.48;10.00;;;2.20;99.90;;;;;;5059317;28;20049;-64
2022/12/02 11:29:03;;;;;;;13.35;9.05;;;2.20;99.90;;;;;;5055329;28;20103;-64
2022/12/02 11:31:30;;;;;;;15.32;8.93;;;2.20;99.90;;;;;;5060559;28;20132;-63
2022/12/02 11:34:01;;;;;;;21.23;8.88;;;2.20;99.90;;;;;;5058553;28;20054;-65
2022/12/02 11:36:34;;;;;;;21.65;8.82;;;2.20;99.90;;;;;;5051210;28;20704;-62
2022/12/02 11:39:05;;;;;;;15.55;8.07;;;2.20;99.90;;;;;;5056740;28;20069;-62
2022/12/02 11:41:47;;;;;;;16.90;7.53;;;2.20;99.90;;;;;;5060097;28;20055;-62
2022/12/02 11:44:28;;;;;;;12.05;8.10;;;2.20;99.90;;;;;;5059548;28;20048;-62
2022/12/02 11:47:00;;;;;;;12.98;7.47;;;2.20;99.90;;;;;;5060264;28;20049;-63
2022/12/02 11:49:40;;;;;;;15.48;8.30;;;2.20;99.90;;;;;;5056781;28;20518;-62
2022/12/02 11:52:07;;;;;;;31.90;9.00;;;2.10;99.90;;;;;;5058730;28;20125;-63
2022/12/02 11:54:41;;;;;;;15.48;8.90;;;2.20;99.90;;;;;;5058294;28;20067;-62
2022/12/02 11:57:18;;;;;;;22.65;8.90;;;2.20;99.90;;;;;;5054847;28;20044;-63
2022/12/02 11:59:45;;;;;;;32.95;10.63;;;2.10;99.90;;;;;;5054140;28;20072;-65
2022/12/02 12:02:19;;;;;;;26.35;9.52;;;2.10;99.90;;;;;;5056926;28;20052;-63
2022/12/02 12:04:58;;;;;;;16.15;8.13;;;2.10;99.90;;;;;;5050720;28;20045;-62
2022/12/02 12:07:46;;;;;;;15.80;7.82;;;2.10;99.90;;;;;;5051750;28;20081;-61
2022/12/02 12:10:27;;;;;;;13.68;7.75;;;2.10;99.90;;;;;;5054857;28;20135;-62
2022/12/02 12:13:22;;;;;;;19.67;7.63;;;2.10;99.90;;;;;;5055842;28;20040;-65
2022/12/02 12:15:54;;;;;;;20.90;7.28;;;2.10;99.90;;;;;;5060122;28;20079;-63
2022/12/02 12:18:40;;;;;;;19.85;8.32;;;2.10;99.90;;;;;;5057887;28;20128;-63
2022/12/02 12:21:08;;;;;;;15.70;7.75;;;2.10;99.90;;;;;;5055385;28;20075;-62
2022/12/02 12:23:44;;;;;;;9.13;7.05;;;2.10;99.90;;;;;;5059131;28;20198;-62
2022/12/02 12:26:32;;;;;;;26.05;9.05;;;2.10;99.90;;;;;;5063332;28;20124;-64
2022/12/02 12:29:03;;;;;;;15.00;7.72;;;2.10;99.90;;;;;;5058899;28;20067;-64
2022/12/02 12:31:30;;;;;;;16.40;8.93;;;2.10;99.90;;;;;;5065000;28;20126;-62
2022/12/02 12:34:04;;;;;;;12.95;7.10;;;2.10;99.90;;;;;;5067890;28;20052;-63
2022/12/02 12:36:31;;;;;;;19.15;7.20;;;2.10;99.90;;;;;;5057594;28;20156;-61
2022/12/02 12:38:58;;;;;;;17.42;7.97;;;2.10;99.90;;;;;;5058095;28;20055;-62
2022/12/02 12:41:25;;;;;;;18.65;7.93;;;2.00;99.90;;;;;;5062108;28;20049;-62
2022/12/02 12:44:12;;;;;;;21.85;9.60;;;2.00;99.90;;;;;;5058495;28;20466;-61
2022/12/02 12:46:39;;;;;;;16.35;7.85;;;2.00;99.90;;;;;;5063059;28;20055;-65
2022/12/02 12:49:06;;;;;;;13.98;8.05;;;2.00;99.90;;;;;;5057433;28;20106;-62
2022/12/02 12:51:36;;;;;;;35.88;8.90;;;2.00;99.90;;;;;;5059653;28;20095;-61
2022/12/02 12:54:04;;;;;;;18.05;8.68;;;1.90;99.90;;;;;;5061452;28;20052;-62
2022/12/02 12:56:30;;;;;;;24.50;9.57;;;1.90;99.90;;;;;;5062398;28;20045;-62
2022/12/02 12:58:57;;;;;;;15.25;7.40;;;1.90;99.90;;;;;;5069251;28;20137;-62
2022/12/02 13:01:24;;;;;;;20.08;9.05;;;1.90;99.90;;;;;;5066504;28;20486;-65